createdAt,value
2022-10-08T04:00:25.672Z,99.99
2022-10-08T04:05:25.587Z,99.99
2022-10-08T04:10:25.537Z,99.99
2022-10-08T04:15:33.590Z,99.99
2022-10-08T04:20:25.423Z,99.99
2022-10-08T04:25:25.369Z,99.99
2022-10-08T04:30:25.318Z,99.99
2022-10-08T04:35:25.298Z,99.99
2022-10-08T04:40:25.210Z,99.99
2022-10-08T04:45:25.160Z,99.99
2022-10-08T04:50:25.107Z,99.99
2022-10-08T04:55:25.068Z,99.99
2022-10-08T05:00:24.993Z,99.99
2022-10-08T05:05:24.939Z,99.99
2022-10-08T05:10:24.885Z,99.99
2022-10-08T05:15:24.855Z,99.99
2022-10-08T05:20:24.803Z,99.99
2022-10-08T05:25:24.731Z,99.99
2022-10-08T05:30:24.677Z,99.99
2022-10-08T05:35:24.643Z,99.99
2022-10-08T05:40:24.569Z,99.99
2022-10-08T05:45:24.510Z,99.99
2022-10-08T05:50:24.461Z,99.99
2022-10-08T05:55:24.427Z,99.99
2022-10-08T06:00:24.354Z,99.99
2022-10-08T06:05:24.299Z,99.99
2022-10-08T06:10:24.251Z,99.99
2022-10-08T06:15:24.218Z,99.99
2022-10-08T06:20:27.430Z,99.99
2022-10-08T06:25:24.088Z,99.99
2022-10-08T06:30:24.034Z,99.99
2022-10-08T06:35:23.998Z,99.99
2022-10-08T06:40:23.929Z,99.99
2022-10-08T06:45:23.875Z,99.99
2022-10-08T06:50:23.824Z,99.99
2022-10-08T06:55:23.843Z,99.99
2022-10-08T07:00:23.719Z,99.99
2022-10-08T07:05:23.658Z,99.99
2022-10-08T07:10:23.610Z,99.99
2022-10-08T07:15:23.571Z,99.99
2022-10-08T07:20:23.511Z,99.99
2022-10-08T07:25:23.455Z,99.99
2022-10-08T07:30:23.410Z,99.99
2022-10-08T07:35:23.357Z,99.99
2022-10-08T07:40:23.289Z,99.99
2022-10-08T07:45:23.349Z,99.99
2022-10-08T07:50:23.184Z,99.99
2022-10-08T07:55:23.151Z,99.99
2022-10-08T08:00:26.129Z,99.99
2022-10-08T08:05:23.037Z,99.99
2022-10-08T08:10:22.958Z,99.99
2022-10-08T08:15:22.942Z,99.99
2022-10-08T08:20:22.867Z,99.99
2022-10-08T08:25:22.806Z,99.99
2022-10-08T08:30:22.754Z,99.99
2022-10-08T08:35:22.730Z,99.99
2022-10-08T08:40:22.649Z,99.99
2022-10-08T08:45:44.679Z,99.99
2022-10-08T08:50:23.583Z,99.99
2022-10-08T08:55:22.498Z,99.99
2022-10-08T09:00:22.434Z,99.99
2022-10-08T09:05:22.417Z,99.99
2022-10-08T09:10:22.319Z,99.99
2022-10-08T09:15:22.304Z,99.99
2022-10-08T09:20:22.356Z,99.99
2022-10-08T09:25:22.153Z,99.99
2022-10-08T09:30:22.122Z,99.52
2022-10-08T09:35:22.049Z,99.73
2022-10-08T09:40:21.984Z,98.40
2022-10-08T09:45:22.357Z,99.99
2022-10-08T09:50:21.891Z,99.99
2022-10-08T09:55:21.845Z,99.99
2022-10-08T10:00:21.769Z,99.99
2022-10-08T10:05:21.721Z,99.99
2022-10-08T10:10:21.666Z,99.99
2022-10-08T10:15:28.666Z,98.91
2022-10-08T10:20:21.554Z,99.99
2022-10-08T10:25:21.496Z,99.11
2022-10-08T10:30:21.447Z,99.84
2022-10-08T10:35:21.526Z,99.11
2022-10-08T10:40:21.335Z,99.22
2022-10-08T10:45:21.284Z,98.91
2022-10-08T10:50:21.227Z,99.84
2022-10-08T10:55:21.198Z,99.99
2022-10-08T11:00:21.107Z,99.52
2022-10-08T11:05:21.067Z,99.99
2022-10-08T11:10:21.012Z,99.99
2022-10-08T11:15:20.978Z,99.99
2022-10-08T11:20:20.901Z,99.99
2022-10-08T11:25:20.853Z,98.71
2022-10-08T11:30:20.793Z,98.50
2022-10-08T11:35:20.761Z,99.99
2022-10-08T11:40:20.670Z,99.99
2022-10-08T11:45:20.636Z,99.99
2022-10-08T11:50:20.588Z,99.99
2022-10-08T11:55:20.586Z,99.99
2022-10-08T12:00:20.538Z,99.99
2022-10-08T12:05:20.413Z,99.99
2022-10-08T12:10:20.357Z,99.99
2022-10-08T12:15:20.326Z,99.99
2022-10-08T12:20:20.249Z,99.99
2022-10-08T12:25:20.207Z,99.63
2022-10-08T12:30:20.143Z,99.11
2022-10-08T12:35:20.111Z,99.22
2022-10-08T12:40:20.039Z,98.81
2022-10-08T12:45:19.984Z,99.22
2022-10-08T12:50:19.923Z,98.91
2022-10-08T12:55:19.888Z,99.99
2022-10-08T13:00:19.889Z,99.99
2022-10-08T13:05:19.761Z,99.99
2022-10-08T13:10:19.707Z,99.99
2022-10-08T13:15:19.674Z,99.99
2022-10-08T13:20:19.601Z,99.52
2022-10-08T13:25:19.543Z,98.91
2022-10-08T13:30:19.492Z,98.91
2022-10-08T13:35:19.457Z,99.11
2022-10-08T13:40:19.387Z,98.81
2022-10-08T13:45:19.336Z,98.40
2022-10-08T13:50:19.278Z,98.81
2022-10-08T13:55:19.311Z,98.71
2022-10-08T14:00:19.169Z,99.99
2022-10-08T14:05:19.110Z,99.99
2022-10-08T14:10:19.055Z,99.99
2022-10-08T14:15:19.010Z,99.99
2022-10-08T14:20:18.953Z,99.99
2022-10-08T14:25:18.882Z,99.99
2022-10-08T14:30:18.844Z,99.99
2022-10-08T14:35:18.794Z,99.99
2022-10-08T14:40:18.736Z,99.99
2022-10-08T14:45:18.677Z,99.99
2022-10-08T14:50:18.628Z,99.99
2022-10-08T14:55:18.578Z,99.99
2022-10-08T15:00:18.520Z,99.99
2022-10-08T15:05:18.451Z,99.99
2022-10-08T15:10:18.534Z,99.99
2022-10-08T15:15:18.370Z,99.99
2022-10-08T15:20:18.313Z,99.99
2022-10-08T15:25:18.236Z,99.99
2022-10-08T15:30:18.255Z,99.99
2022-10-08T15:35:18.151Z,99.99
2022-10-08T15:40:18.097Z,99.99
2022-10-08T15:45:18.019Z,99.99
2022-10-08T15:50:17.978Z,99.99
2022-10-08T15:55:17.948Z,99.99
2022-10-08T16:00:17.855Z,99.99
2022-10-08T16:05:17.809Z,99.99
2022-10-08T16:10:17.764Z,99.99
2022-10-08T16:15:24.796Z,99.99
2022-10-08T16:20:17.633Z,99.99
2022-10-08T16:25:17.590Z,99.99
2022-10-08T16:30:17.547Z,99.99
2022-10-08T16:35:17.493Z,99.99
2022-10-08T16:40:17.426Z,99.99
2022-10-08T16:45:17.372Z,99.99
2022-10-08T16:50:17.302Z,99.99
2022-10-08T16:55:17.279Z,99.99
2022-10-08T17:00:17.217Z,99.99
2022-10-08T17:05:17.138Z,99.99
2022-10-08T17:10:17.098Z,99.99
2022-10-08T17:15:17.056Z,99.99
2022-10-08T17:20:17.000Z,99.99
2022-10-08T17:25:16.917Z,99.99
2022-10-08T17:30:16.882Z,99.99
2022-10-08T17:35:16.850Z,99.99
2022-10-08T17:40:16.759Z,99.99
2022-10-08T17:45:16.715Z,99.99
2022-10-08T17:50:16.672Z,99.99
2022-10-08T17:55:17.195Z,99.99
2022-10-08T18:00:16.556Z,99.99
2022-10-08T18:05:16.497Z,99.99
2022-10-08T18:10:16.433Z,99.99
2022-10-08T18:15:16.410Z,99.99
2022-10-08T18:20:16.374Z,99.99
2022-10-08T18:25:16.274Z,99.99
2022-10-08T18:30:16.238Z,99.99
2022-10-08T18:35:16.225Z,99.99
2022-10-08T18:40:16.116Z,99.99
2022-10-08T18:45:16.090Z,99.99
2022-10-08T18:50:16.017Z,99.99
2022-10-08T18:55:16.039Z,99.99
2022-10-08T19:00:15.903Z,99.99
2022-10-08T19:05:15.921Z,99.99
2022-10-08T19:10:15.818Z,99.99
2022-10-08T19:15:15.763Z,99.99
2022-10-08T19:20:15.708Z,99.99
2022-10-08T19:25:15.684Z,99.99
2022-10-08T19:30:15.585Z,99.99
2022-10-08T19:35:15.566Z,99.99
2022-10-08T19:40:15.501Z,99.99
2022-10-08T19:45:15.432Z,99.99
2022-10-08T19:50:15.387Z,99.99
2022-10-08T19:55:15.354Z,99.99
2022-10-08T20:00:15.267Z,99.99
2022-10-08T20:05:15.241Z,99.99
2022-10-08T20:10:15.186Z,99.99
2022-10-08T20:15:15.130Z,99.99
2022-10-08T20:20:32.244Z,99.99
2022-10-08T20:25:16.059Z,99.99
2022-10-08T20:30:14.948Z,99.99
2022-10-08T20:35:14.924Z,99.99
2022-10-08T20:40:14.866Z,99.99
2022-10-08T20:45:14.791Z,99.99
2022-10-08T20:50:14.750Z,99.99
2022-10-08T20:55:14.730Z,99.99
2022-10-08T21:00:14.628Z,99.99
2022-10-08T21:05:14.588Z,99.99
2022-10-08T21:10:14.550Z,99.99
2022-10-08T21:15:14.487Z,99.99
2022-10-08T21:20:14.428Z,99.99
2022-10-08T21:25:14.378Z,99.99
2022-10-08T21:30:14.308Z,99.99
2022-10-08T21:35:14.291Z,99.99
2022-10-08T21:40:14.211Z,99.99
2022-10-08T21:45:14.150Z,99.99
2022-10-08T21:50:14.101Z,99.99
2022-10-08T21:55:14.070Z,99.99
2022-10-08T22:00:13.998Z,99.99
2022-10-08T22:05:13.930Z,99.99
2022-10-08T22:10:13.884Z,99.99
2022-10-08T22:15:20.889Z,99.99
2022-10-08T22:20:13.772Z,99.99
2022-10-08T22:25:13.725Z,99.99
2022-10-08T22:30:13.687Z,99.99
2022-10-08T22:35:13.628Z,99.99
2022-10-08T22:40:13.577Z,99.99
2022-10-08T22:45:13.527Z,99.99
2022-10-08T22:50:13.446Z,99.99
2022-10-08T22:55:13.428Z,99.99
2022-10-08T23:00:13.360Z,99.99
2022-10-08T23:05:13.283Z,99.99
2022-10-08T23:10:13.244Z,99.99
2022-10-08T23:15:13.213Z,99.99
2022-10-08T23:20:13.126Z,99.99
2022-10-08T23:25:13.252Z,99.99
